Time;durP1;ratioP1;P1;durP2;ratioP2;P2;SDS_P1;SDS_P2;PMS_P1;PMS_P2;Temp;Humidity;BMP_temperature;BMP_pressure;BME280_temperature;BME280_humidity;BME280_pressure;Samples;Min_cycle;Max_cycle;Signal;HPM_P1;HPM_P2
2022/08/31 00:04:48;;;;;;;73.87;27.40;;;11.80;1.00;;;;;;4896000;29;20272;-87
2022/08/31 00:07:15;;;;;;;71.20;26.83;;;11.70;1.00;;;;;;4907501;29;20284;-87
2022/08/31 00:09:42;;;;;;;70.17;26.53;;;11.70;4.50;;;;;;4913310;29;20217;-87
2022/08/31 00:12:09;;;;;;;61.27;24.70;;;11.70;1.00;;;;;;4915250;29;20198;-87
2022/08/31 00:14:37;;;;;;;63.70;25.47;;;11.70;1.00;;;;;;4901463;29;20202;-86
2022/08/31 00:17:05;;;;;;;61.73;25.07;;;11.60;1.00;;;;;;4915018;29;20225;-87
2022/08/31 00:19:32;;;;;;;58.53;24.50;;;11.60;1.00;;;;;;4913848;29;20201;-86
2022/08/31 00:21:59;;;;;;;56.07;23.93;;;11.60;1.00;;;;;;4903004;29;20669;-86
2022/08/31 00:24:26;;;;;;;53.47;23.50;;;11.50;99.90;;;;;;4915360;29;20205;-87
2022/08/31 00:26:53;;;;;;;51.97;23.20;;;11.50;99.90;;;;;;4907125;29;20270;-86
2022/08/31 00:29:20;;;;;;;49.40;22.60;;;11.50;1.00;;;;;;4898347;29;20197;-86
2022/08/31 00:31:49;;;;;;;48.80;22.40;;;11.50;1.00;;;;;;4911171;29;20198;-86
2022/08/31 00:34:16;;;;;;;47.70;22.25;;;11.50;99.90;;;;;;4906832;29;20594;-86
2022/08/31 00:36:46;;;;;;;47.37;22.07;;;11.50;1.00;;;;;;4898940;29;20206;-87
2022/08/31 00:39:13;;;;;;;46.00;21.80;;;11.40;99.90;;;;;;4915504;29;20237;-87
2022/08/31 00:41:40;;;;;;;46.00;22.00;;;11.40;99.90;;;;;;4901299;29;20194;-87
2022/08/31 00:44:09;;;;;;;45.20;21.87;;;11.40;99.90;;;;;;4914436;29;20225;-86
2022/08/31 00:46:41;;;;;;;43.97;21.47;;;11.40;23.20;;;;;;4913958;29;20253;-87
2022/08/31 00:49:14;;;;;;;44.38;21.52;;;11.40;1.00;;;;;;4898083;29;20194;-87
2022/08/31 00:51:44;;;;;;;44.35;21.67;;;11.40;99.90;;;;;;4908835;29;20202;-86
2022/08/31 00:54:13;;;;;;;43.50;21.40;;;11.30;1.00;;;;;;4898461;29;20652;-86
2022/08/31 00:56:43;;;;;;;42.75;21.10;;;11.40;99.90;;;;;;4897975;29;20200;-86
2022/08/31 00:59:11;;;;;;;43.40;21.45;;;11.30;99.90;;;;;;4897243;29;20206;-86
2022/08/31 01:01:38;;;;;;;43.17;21.10;;;11.30;99.90;;;;;;4897429;29;20229;-86
2022/08/31 01:04:06;;;;;;;42.72;21.08;;;11.30;99.90;;;;;;4897394;29;20213;-87
2022/08/31 01:06:34;;;;;;;43.38;21.25;;;11.30;99.90;;;;;;4896705;29;20651;-86
2022/08/31 01:09:03;;;;;;;43.87;21.23;;;11.30;99.90;;;;;;4908326;29;20611;-87
2022/08/31 01:11:31;;;;;;;43.95;21.25;;;11.30;99.90;;;;;;4915973;29;20201;-86
2022/08/31 01:13:58;;;;;;;43.22;21.02;;;11.30;99.90;;;;;;4907087;29;20198;-86
2022/08/31 01:16:33;;;;;;;43.73;21.37;;;11.20;99.90;;;;;;4909726;29;20197;-86
2022/08/31 01:19:02;;;;;;;42.72;21.00;;;11.20;99.90;;;;;;4897586;29;20200;-86
2022/08/31 01:21:36;;;;;;;41.88;20.90;;;11.20;99.90;;;;;;4896777;29;20217;-86
2022/08/31 01:24:06;;;;;;;41.70;20.75;;;11.10;99.90;;;;;;4901164;29;20192;-86
2022/08/31 01:26:33;;;;;;;43.63;21.43;;;11.10;99.90;;;;;;4915122;29;20233;-86
2022/08/31 01:29:05;;;;;;;41.30;20.60;;;11.10;1.00;;;;;;4914198;29;20197;-87
2022/08/31 01:31:34;;;;;;;42.33;21.00;;;11.10;1.00;;;;;;4908996;29;20196;-86
2022/08/31 01:34:01;;;;;;;41.10;20.87;;;11.10;1.00;;;;;;4916463;29;20556;-87
2022/08/31 01:36:30;;;;;;;35.10;19.33;;;11.10;1.00;;;;;;4901978;29;20261;-87
2022/08/31 01:38:57;;;;;;;38.63;20.70;;;11.10;1.00;;;;;;4915921;29;20193;-86
2022/08/31 01:41:25;;;;;;;34.75;19.55;;;11.10;53.70;;;;;;4901732;29;20205;-86
2022/08/31 01:43:53;;;;;;;37.30;20.55;;;11.10;1.00;;;;;;4908787;29;20703;-87
2022/08/31 01:46:21;;;;;;;33.42;19.70;;;11.10;99.90;;;;;;4909652;29;20603;-86
2022/08/31 01:48:48;;;;;;;30.58;18.17;;;11.10;99.90;;;;;;4896885;29;20195;-87
2022/08/31 01:51:19;;;;;;;29.85;17.88;;;11.10;99.90;;;;;;4903120;29;20647;-87
2022/08/31 01:53:49;;;;;;;29.08;17.52;;;11.20;1.00;;;;;;4903286;29;20197;-87
2022/08/31 01:56:19;;;;;;;28.33;17.42;;;11.20;1.00;;;;;;4903448;29;20201;-87
2022/08/31 01:58:48;;;;;;;27.67;17.20;;;11.20;1.00;;;;;;4909797;29;20213;-87
2022/08/31 02:01:15;;;;;;;27.15;17.02;;;11.20;1.00;;;;;;4904954;29;20233;-87
2022/08/31 02:03:42;;;;;;;27.90;17.27;;;11.30;99.90;;;;;;4914356;29;20272;-87
2022/08/31 02:06:11;;;;;;;30.15;18.20;;;11.30;99.90;;;;;;4897153;29;20266;-87
2022/08/31 02:08:38;;;;;;;30.65;18.52;;;11.30;1.00;;;;;;4896337;29;20269;-87
2022/08/31 02:11:05;;;;;;;29.15;17.75;;;11.30;99.90;;;;;;4883622;29;20202;-86
2022/08/31 02:13:33;;;;;;;30.67;18.42;;;11.20;99.90;;;;;;4908401;29;20197;-87
2022/08/31 02:16:02;;;;;;;32.78;19.25;;;11.20;1.00;;;;;;4910540;29;20201;-87
2022/08/31 02:18:30;;;;;;;32.83;19.42;;;11.20;1.00;;;;;;4907257;29;20201;-87
2022/08/31 02:20:57;;;;;;;29.23;17.65;;;11.20;1.00;;;;;;4897919;29;20198;-87
2022/08/31 02:23:24;;;;;;;29.92;17.90;;;11.10;99.90;;;;;;4904275;29;20205;-87
2022/08/31 02:25:51;;;;;;;29.17;17.58;;;11.10;99.90;;;;;;4911827;29;20661;-86
2022/08/31 02:28:18;;;;;;;31.67;18.83;;;11.10;65.20;;;;;;4896914;29;20233;-87
2022/08/31 02:30:46;;;;;;;29.92;18.00;;;11.10;59.00;;;;;;4895932;29;20293;-87
2022/08/31 02:33:14;;;;;;;32.28;19.23;;;11.00;99.90;;;;;;4909580;29;20198;-87
2022/08/31 02:35:42;;;;;;;31.95;19.05;;;11.00;99.90;;;;;;4907628;29;20201;-87
2022/08/31 02:38:10;;;;;;;32.30;18.98;;;11.00;1.00;;;;;;4897700;29;20206;-87
2022/08/31 02:40:39;;;;;;;32.88;19.38;;;11.00;99.90;;;;;;4896118;29;20198;-87
2022/08/31 02:43:07;;;;;;;36.40;20.15;;;11.00;1.00;;;;;;4912160;29;20213;-87
2022/08/31 02:45:34;;;;;;;31.35;18.50;;;11.00;99.90;;;;;;4906169;29;20198;-87
2022/08/31 02:48:10;;;;;;;31.65;18.77;;;10.90;99.90;;;;;;4921063;29;20204;-91
2022/08/31 02:50:41;;;;;;;31.60;18.73;;;10.90;1.00;;;;;;4912042;29;20665;-86
2022/08/31 02:53:08;;;;;;;31.48;18.77;;;10.90;1.00;;;;;;4914865;29;20204;-87
2022/08/31 02:55:35;;;;;;;31.52;18.90;;;11.00;1.00;;;;;;4911467;29;20204;-87
2022/08/31 02:58:04;;;;;;;30.30;18.30;;;11.00;1.00;;;;;;4902326;29;20544;-86
2022/08/31 03:00:32;;;;;;;32.55;19.40;;;11.00;99.90;;;;;;4910508;29;20253;-87
2022/08/31 03:02:59;;;;;;;31.25;18.75;;;11.10;1.00;;;;;;4897150;29;20273;-87
2022/08/31 03:05:27;;;;;;;30.80;18.42;;;11.10;1.00;;;;;;4903516;29;20254;-86
2022/08/31 03:07:55;;;;;;;28.13;17.25;;;11.10;1.00;;;;;;4908252;29;20228;-87
2022/08/31 03:10:24;;;;;;;27.67;17.27;;;11.10;1.00;;;;;;4909606;29;20256;-86
2022/08/31 03:12:52;;;;;;;26.27;16.75;;;11.10;99.90;;;;;;4901411;29;20202;-86
2022/08/31 03:15:21;;;;;;;25.77;16.52;;;11.10;99.90;;;;;;4912024;29;20194;-86
2022/08/31 03:17:48;;;;;;;25.80;16.63;;;11.10;1.00;;;;;;4899501;29;20206;-86
2022/08/31 03:20:17;;;;;;;24.25;16.13;;;11.10;99.90;;;;;;4910751;29;20250;-86
2022/08/31 03:22:44;;;;;;;24.27;16.27;;;11.10;1.00;;;;;;4898605;29;20266;-86
2022/08/31 03:25:12;;;;;;;25.02;16.40;;;11.10;1.00;;;;;;4916875;29;20201;-86
2022/08/31 03:27:40;;;;;;;23.73;15.90;;;11.10;1.00;;;;;;4918133;29;20697;-87
2022/08/31 03:30:10;;;;;;;24.85;16.50;;;11.10;1.00;;;;;;4906263;29;20205;-87
2022/08/31 03:32:37;;;;;;;23.38;15.77;;;11.10;1.00;;;;;;4913236;29;20193;-86
2022/08/31 03:35:05;;;;;;;24.65;16.23;;;11.00;99.90;;;;;;4903682;29;20198;-86
2022/08/31 03:37:33;;;;;;;27.50;17.08;;;11.00;1.00;;;;;;4905513;29;20245;-86
2022/08/31 03:40:00;;;;;;;32.38;19.33;;;11.00;99.90;;;;;;4915686;29;20201;-87
2022/08/31 03:42:29;;;;;;;34.92;19.60;;;10.90;1.00;;;;;;4905735;29;20202;-87
2022/08/31 03:44:56;;;;;;;35.25;19.27;;;10.90;1.00;;;;;;4914931;29;20193;-87
2022/08/31 03:47:23;;;;;;;35.45;19.15;;;10.80;99.90;;;;;;4908425;29;20222;-87
2022/08/31 03:49:50;;;;;;;32.65;18.38;;;10.80;1.00;;;;;;4899171;29;20205;-87
2022/08/31 03:52:19;;;;;;;34.73;19.10;;;10.80;99.90;;;;;;4907648;29;20201;-87
2022/08/31 03:54:46;;;;;;;34.00;18.93;;;10.70;1.00;;;;;;4903210;29;20209;-87
2022/08/31 03:57:13;;;;;;;36.08;19.45;;;10.70;99.90;;;;;;4905159;29;20205;-87
2022/08/31 03:59:42;;;;;;;32.75;18.80;;;10.70;99.90;;;;;;4916912;29;20205;-88
2022/08/31 04:02:09;;;;;;;34.93;19.17;;;10.60;1.00;;;;;;4917468;29;20232;-87
2022/08/31 04:04:36;;;;;;;32.77;19.07;;;10.60;99.90;;;;;;4918092;29;20308;-87
2022/08/31 04:07:03;;;;;;;32.22;18.90;;;10.60;99.90;;;;;;4905046;29;20675;-88
2022/08/31 04:09:30;;;;;;;31.52;18.58;;;10.60;99.90;;;;;;4901196;29;20197;-87
2022/08/31 04:11:57;;;;;;;31.42;18.60;;;10.60;99.90;;;;;;4898961;29;20571;-88
2022/08/31 04:14:24;;;;;;;31.27;18.77;;;10.60;51.60;;;;;;4901222;29;20254;-87
2022/08/31 04:16:52;;;;;;;26.50;16.77;;;10.50;99.90;;;;;;4900453;29;20700;-87
2022/08/31 04:19:19;;;;;;;27.83;17.13;;;10.50;99.90;;;;;;4908939;29;20202;-87
2022/08/31 04:21:48;;;;;;;26.38;16.80;;;10.60;1.00;;;;;;4913377;29;20193;-87
2022/08/31 04:24:15;;;;;;;26.05;16.73;;;10.60;1.00;;;;;;4908804;29;20202;-87
2022/08/31 04:26:42;;;;;;;34.10;19.10;;;10.60;1.00;;;;;;4894655;29;20448;-87
2022/08/31 04:29:09;;;;;;;18.55;14.63;;;10.60;1.00;;;;;;4901333;29;20229;-87
2022/08/31 04:31:37;;;;;;;30.17;17.70;;;10.70;99.90;;;;;;4903385;29;20444;-87
2022/08/31 04:34:06;;;;;;;16.48;13.88;;;10.70;99.90;;;;;;4917170;29;20204;-87
2022/08/31 04:36:33;;;;;;;18.27;14.55;;;10.80;99.90;;;;;;4903505;29;20212;-87
2022/08/31 04:39:02;;;;;;;18.38;14.73;;;10.80;99.90;;;;;;4906241;29;20262;-87
2022/08/31 04:41:31;;;;;;;18.55;14.50;;;10.90;99.90;;;;;;4910978;29;20199;-88
2022/08/31 04:44:00;;;;;;;17.70;14.23;;;11.00;99.90;;;;;;4898078;29;20262;-87
2022/08/31 04:46:28;;;;;;;21.88;15.85;;;11.00;76.60;;;;;;4897140;29;20548;-88
2022/08/31 04:48:55;;;;;;;20.85;15.07;;;11.10;99.90;;;;;;4898010;29;20209;-87
2022/08/31 04:51:26;;;;;;;21.15;15.35;;;11.10;1.00;;;;;;4899179;29;20202;-87
2022/08/31 04:53:53;;;;;;;20.10;15.13;;;11.20;1.00;;;;;;4910264;29;20299;-88
2022/08/31 04:56:22;;;;;;;19.77;14.95;;;11.20;1.00;;;;;;4910877;29;20229;-87
2022/08/31 04:58:53;;;;;;;17.35;14.15;;;11.30;99.90;;;;;;4890476;29;20193;-87
2022/08/31 05:01:23;;;;;;;18.33;14.52;;;11.40;1.00;;;;;;4909663;29;20230;-88
2022/08/31 05:03:52;;;;;;;16.05;13.68;;;11.50;99.90;;;;;;4895459;29;20194;-86
2022/08/31 05:06:20;;;;;;;15.65;13.70;;;11.70;1.00;;;;;;4908385;29;20198;-87
2022/08/31 05:08:52;;;;;;;15.60;13.70;;;11.80;24.60;;;;;;4908522;29;20224;-87
2022/08/31 05:11:21;;;;;;;17.35;14.40;;;12.00;99.90;;;;;;4896031;29;20280;-86
2022/08/31 05:13:48;;;;;;;18.17;14.63;;;12.40;99.90;;;;;;4907971;29;20387;-86
2022/08/31 05:16:16;;;;;;;19.92;15.38;;;13.20;1.00;;;;;;4902202;29;20197;-87
2022/08/31 05:18:46;;;;;;;22.23;16.15;;;14.10;1.00;;;;;;4906046;29;20210;-88
2022/08/31 05:21:14;;;;;;;47.75;23.60;;;15.20;1.00;;;;;;4910485;29;20198;-88
2022/08/31 05:23:42;;;;;;;;;;;16.50;1.00;;;;;;4897502;29;20238;-88
2022/08/31 05:26:17;;;;;;;58.53;26.30;;;17.50;99.90;;;;;;4898902;29;20060;-88
2022/08/31 05:28:44;;;;;;;61.55;26.77;;;18.50;99.90;;;;;;4915188;29;20300;-88
2022/08/31 05:31:12;;;;;;;;;;;19.40;99.90;;;;;;4916881;29;20094;-90
2022/08/31 05:33:40;;;;;;;;;;;20.20;1.00;;;;;;4920253;29;19969;-92
2022/08/31 05:36:15;;;;;;;;;;;20.90;99.90;;;;;;4923769;29;19947;-91
2022/08/31 05:38:46;;;;;;;;;;;21.60;1.00;;;;;;4907028;29;19996;-94
2022/08/31 05:41:17;;;;;;;86.40;30.23;;;22.20;35.60;;;;;;4918141;29;20175;-91
2022/08/31 05:43:45;;;;;;;91.20;30.52;;;22.60;99.90;;;;;;4905510;29;20205;-91
2022/08/31 05:46:19;;;;;;;93.97;31.05;;;23.00;99.90;;;;;;4917756;29;20202;-91
2022/08/31 05:48:51;;;;;;;90.00;29.65;;;23.20;1.00;;;;;;4916783;29;20215;-90
2022/08/31 05:51:19;;;;;;;;;;;23.50;99.90;;;;;;4923457;29;19947;-86
2022/08/31 05:53:50;;;;;;;;;;;24.00;99.90;;;;;;4918038;29;20105;-89
2022/08/31 05:56:34;;;;;;;122.75;33.50;;;24.60;99.90;;;;;;4922347;29;20391;-86
2022/08/31 05:59:04;;;;;;;128.13;34.17;;;25.00;99.90;;;;;;4929256;29;20842;-87
2022/08/31 06:01:38;;;;;;;128.85;34.90;;;25.40;44.30;;;;;;4921372;29;20233;-90
2022/08/31 06:04:22;;;;;;;130.23;34.60;;;25.60;1.00;;;;;;4921392;29;20192;-90
2022/08/31 06:07:01;;;;;;;125.57;34.05;;;25.90;1.00;;;;;;4933844;29;20213;-92
2022/08/31 06:09:38;;;;;;;126.70;34.08;;;26.00;1.00;;;;;;4908946;29;20207;-89
2022/08/31 06:12:18;;;;;;;127.60;34.17;;;26.20;1.00;;;;;;4935069;29;20202;-88
2022/08/31 06:14:52;;;;;;;125.97;33.92;;;26.30;1.00;;;;;;4926065;29;20271;-90
2022/08/31 06:17:27;;;;;;;125.15;33.45;;;26.40;1.00;;;;;;4921152;29;20237;-89
2022/08/31 06:19:56;;;;;;;125.68;33.90;;;26.50;1.00;;;;;;4912197;29;20217;-87
2022/08/31 06:22:24;;;;;;;124.75;33.88;;;26.60;1.00;;;;;;4909029;29;20252;-87
2022/08/31 06:24:51;;;;;;;129.60;34.22;;;26.60;1.00;;;;;;4896763;29;20204;-87
2022/08/31 06:27:20;;;;;;;127.85;33.90;;;26.70;1.00;;;;;;4896421;29;20198;-88
2022/08/31 06:29:48;;;;;;;127.43;34.13;;;26.80;1.00;;;;;;4886951;29;20197;-94
2022/08/31 06:32:15;;;;;;;130.13;34.22;;;26.90;1.00;;;;;;4912534;29;20212;-86
2022/08/31 06:34:44;;;;;;;131.85;34.58;;;27.00;1.00;;;;;;4915350;29;20254;-88
2022/08/31 06:37:13;;;;;;;129.75;34.13;;;27.20;1.00;;;;;;4906036;29;20201;-88
2022/08/31 06:39:40;;;;;;;128.05;33.83;;;27.30;1.00;;;;;;4907954;29;20256;-89
2022/08/31 06:42:08;;;;;;;131.18;34.30;;;27.40;1.00;;;;;;4900341;29;20210;-89
2022/08/31 06:44:36;;;;;;;129.07;33.78;;;27.50;1.00;;;;;;4910717;29;20209;-87
2022/08/31 06:47:05;;;;;;;131.20;34.55;;;27.40;1.00;;;;;;4909962;29;20620;-88
2022/08/31 06:49:32;;;;;;;131.20;34.45;;;27.40;1.00;;;;;;4900170;29;20731;-88
2022/08/31 06:52:00;;;;;;;129.02;34.15;;;27.20;1.00;;;;;;4896812;29;20570;-87
2022/08/31 06:54:28;;;;;;;127.15;33.63;;;27.10;1.00;;;;;;4908709;29;20566;-87
2022/08/31 06:56:57;;;;;;;127.40;34.40;;;27.10;1.00;;;;;;4911326;29;20229;-88
2022/08/31 06:59:24;;;;;;;126.60;33.78;;;27.10;1.00;;;;;;4902034;29;20233;-91
2022/08/31 07:01:53;;;;;;;121.97;33.35;;;27.10;1.00;;;;;;4899606;29;20240;-89
2022/08/31 07:04:22;;;;;;;127.18;33.75;;;27.10;1.00;;;;;;4916334;29;20211;-87
2022/08/31 07:06:50;;;;;;;125.55;34.10;;;27.30;1.00;;;;;;4908569;29;20213;-87
2022/08/31 07:09:18;;;;;;;130.05;34.20;;;27.40;1.00;;;;;;4899147;29;20222;-88
2022/08/31 07:11:47;;;;;;;131.63;34.55;;;27.50;1.00;;;;;;4900161;29;20198;-88
2022/08/31 07:14:17;;;;;;;123.90;33.67;;;27.70;1.00;;;;;;4898901;29;20194;-89
2022/08/31 07:16:45;;;;;;;126.35;33.83;;;27.90;1.00;;;;;;4899443;29;20232;-88
2022/08/31 07:19:15;;;;;;;123.50;33.55;;;27.90;1.00;;;;;;4899228;29;20313;-87
2022/08/31 07:21:45;;;;;;;130.52;34.33;;;28.00;1.00;;;;;;4899556;29;20210;-88
2022/08/31 07:24:15;;;;;;;126.60;33.47;;;28.00;1.00;;;;;;4899565;29;20194;-88
2022/08/31 07:26:44;;;;;;;124.13;33.50;;;28.00;1.00;;;;;;4913741;29;20198;-89
2022/08/31 07:29:15;;;;;;;124.88;33.55;;;28.00;1.00;;;;;;4916577;29;20202;-87
2022/08/31 07:31:46;;;;;;;125.03;33.58;;;27.90;1.00;;;;;;4906174;29;20285;-90
2022/08/31 07:34:18;;;;;;;122.78;33.22;;;27.70;1.00;;;;;;4899063;29;20198;-88
2022/08/31 07:42:18;;;;;;;120.55;33.08;;;27.40;1.00;;;;;;4917604;29;20234;-88
2022/08/31 07:44:50;;;;;;;120.55;33.38;;;27.40;1.00;;;;;;4915941;29;20201;-88
2022/08/31 07:47:19;;;;;;;121.35;33.45;;;27.40;1.00;;;;;;4899281;29;20287;-88
2022/08/31 07:49:50;;;;;;;122.95;33.53;;;27.40;1.00;;;;;;4913053;29;20282;-87
2022/08/31 07:52:22;;;;;;;123.93;33.67;;;27.60;1.00;;;;;;4909329;29;20265;-89
2022/08/31 07:54:50;;;;;;;123.05;33.58;;;27.60;1.00;;;;;;4898786;29;20213;-89
2022/08/31 07:57:18;;;;;;;122.78;33.53;;;27.50;1.00;;;;;;4899278;29;20296;-89
2022/08/31 07:59:47;;;;;;;128.50;34.22;;;27.50;1.00;;;;;;4898973;29;20261;-88
2022/08/31 08:02:15;;;;;;;130.90;34.35;;;27.60;1.00;;;;;;4898255;29;20222;-89
2022/08/31 08:04:48;;;;;;;128.93;34.03;;;27.70;1.00;;;;;;4898658;29;20253;-92
2022/08/31 08:07:20;;;;;;;130.25;34.08;;;27.70;1.00;;;;;;4933839;29;20210;-89
2022/08/31 08:09:48;;;;;;;133.82;34.60;;;27.80;1.00;;;;;;4921853;29;20191;-91
2022/08/31 08:12:17;;;;;;;137.43;34.92;;;28.00;1.00;;;;;;4934306;29;20229;-89
2022/08/31 08:14:51;;;;;;;139.35;35.30;;;28.30;1.00;;;;;;4917774;29;20199;-88
2022/08/31 08:56:01;;;;;;;128.48;33.85;;;28.70;1.00;;;;;;4831790;29;20204;-94
2022/08/31 08:58:44;;;;;;;;;;;;;;;;;;;;;
2022/08/31 09:01:34;;;;;;;122.95;33.05;;;29.30;1.00;;;;;;4883553;29;20575;-89
2022/08/31 09:04:21;;;;;;;118.35;32.42;;;29.30;1.00;;;;;;4896768;29;20575;-92
2022/08/31 09:07:03;;;;;;;120.13;32.17;;;29.00;1.00;;;;;;4872815;29;20566;-88
2022/08/31 09:09:45;;;;;;;112.53;31.42;;;29.20;1.00;;;;;;4885806;29;20612;-90
2022/08/31 09:12:37;;;;;;;108.55;31.40;;;28.90;1.00;;;;;;4888029;29;20241;-89
2022/08/31 09:15:25;;;;;;;112.72;31.80;;;28.30;1.00;;;;;;4889076;29;20261;-92
2022/08/31 09:18:02;;;;;;;115.47;32.15;;;28.10;1.00;;;;;;4874212;29;20638;-92
2022/08/31 09:20:32;;;;;;;115.13;32.33;;;28.40;1.00;;;;;;4861075;29;20234;-89
2022/08/31 09:23:06;;;;;;;116.50;32.75;;;28.50;1.00;;;;;;4886743;29;20213;-89
2022/08/31 09:25:51;;;;;;;109.60;32.15;;;28.50;1.00;;;;;;4868951;29;20244;-88
2022/08/31 09:28:35;;;;;;;105.93;32.25;;;27.80;1.00;;;;;;4880109;29;20225;-90
2022/08/31 09:31:03;;;;;;;94.72;30.63;;;27.00;1.00;;;;;;4879936;29;20197;-90
2022/08/31 09:33:45;;;;;;;96.97;30.88;;;26.60;1.00;;;;;;4879563;29;20203;-91
2022/08/31 09:39:36;;;;;;;84.60;29.70;;;27.10;1.00;;;;;;4875251;29;20750;-93
2022/08/31 09:42:14;;;;;;;80.07;29.00;;;27.20;1.00;;;;;;4866953;29;20196;-88
2022/08/31 09:44:48;;;;;;;76.57;28.55;;;26.60;1.00;;;;;;4898506;29;20224;-88
2022/08/31 09:47:54;;;;;;;74.72;28.42;;;25.90;1.00;;;;;;4885251;29;20285;-88
2022/08/31 09:50:32;;;;;;;75.82;28.42;;;25.90;1.00;;;;;;4897911;29;20196;-90
2022/08/31 09:56:24;;;;;;;75.90;28.52;;;26.40;1.00;;;;;;4877290;29;20210;-87
2022/08/31 09:58:54;;;;;;;76.10;28.38;;;26.30;1.00;;;;;;4879233;29;20200;-89
2022/08/31 10:01:36;;;;;;;77.05;28.63;;;26.30;1.00;;;;;;4875239;29;20216;-90
2022/08/31 10:04:18;;;;;;;74.75;28.35;;;26.50;1.00;;;;;;4873207;29;20208;-90
2022/08/31 10:06:54;;;;;;;76.47;28.52;;;26.50;1.00;;;;;;4890188;29;20210;-87
2022/08/31 10:09:32;;;;;;;76.13;28.50;;;26.20;1.00;;;;;;4876651;29;20545;-90
2022/08/31 10:12:07;;;;;;;74.38;28.30;;;26.20;1.00;;;;;;4869370;29;20197;-87
2022/08/31 10:14:40;;;;;;;73.55;28.02;;;26.10;1.00;;;;;;4895063;29;20203;-89
2022/08/31 10:17:25;;;;;;;75.70;28.42;;;25.80;1.00;;;;;;4892569;29;20641;-88
2022/08/31 10:20:00;;;;;;;82.32;29.52;;;25.80;1.00;;;;;;4882093;29;20221;-90
2022/08/31 10:22:32;;;;;;;95.90;31.08;;;25.80;1.00;;;;;;4871541;29;20202;-89
2022/08/31 10:25:16;;;;;;;94.53;30.98;;;25.90;1.00;;;;;;4897236;29;20714;-86
2022/08/31 10:27:51;;;;;;;93.72;31.17;;;26.10;1.00;;;;;;4881452;29;20199;-89
2022/08/31 10:30:28;;;;;;;92.95;31.02;;;25.90;1.00;;;;;;4889529;29;20226;-90
2022/08/31 10:33:05;;;;;;;97.97;31.55;;;25.60;1.00;;;;;;4891383;29;20209;-90
2022/08/31 10:35:41;;;;;;;99.72;31.38;;;25.40;1.00;;;;;;4884516;29;20201;-87
2022/08/31 10:38:22;;;;;;;83.30;29.40;;;25.60;1.00;;;;;;4911854;29;20297;-88
2022/08/31 10:40:53;;;;;;;76.75;28.77;;;25.60;1.00;;;;;;4887461;29;20232;-87
2022/08/31 10:43:34;;;;;;;80.70;29.35;;;25.60;1.00;;;;;;4895058;29;20282;-89
2022/08/31 10:46:04;;;;;;;79.60;29.27;;;25.70;1.00;;;;;;4904334;29;20705;-87
2022/08/31 10:48:50;;;;;;;74.13;28.35;;;25.80;1.00;;;;;;4921684;29;20194;-89
2022/08/31 10:51:23;;;;;;;72.57;27.85;;;25.90;1.00;;;;;;4904432;29;20200;-91
2022/08/31 10:54:06;;;;;;;72.70;28.00;;;25.90;1.00;;;;;;4903479;29;20232;-91
2022/08/31 10:56:57;;;;;;;69.80;27.52;;;25.70;1.00;;;;;;4918357;29;20234;-91
2022/08/31 10:59:42;;;;;;;75.90;28.15;;;25.60;1.00;;;;;;4923035;29;20264;-90
2022/08/31 11:02:40;;;;;;;77.30;28.48;;;25.70;1.00;;;;;;4905236;29;20632;-85
2022/08/31 11:05:35;;;;;;;70.95;28.48;;;25.90;1.00;;;;;;4890885;29;20205;-89
2022/08/31 11:08:34;;;;;;;71.35;28.08;;;25.80;1.00;;;;;;4913337;29;20569;-92
2022/08/31 11:11:07;;;;;;;72.40;28.02;;;25.80;1.00;;;;;;4899379;29;20199;-88
2022/08/31 11:14:00;;;;;;;74.32;28.05;;;25.60;1.00;;;;;;4885751;29;20301;-90
2022/08/31 11:16:56;;;;;;;73.50;27.98;;;25.60;1.00;;;;;;4862731;29;20205;-88
2022/08/31 11:19:49;;;;;;;73.10;28.00;;;25.60;1.00;;;;;;4872268;29;20224;-86
2022/08/31 11:23:01;;;;;;;73.07;28.13;;;25.80;1.00;;;;;;4907427;29;20209;-91
2022/08/31 11:26:05;;;;;;;74.72;28.10;;;25.90;1.00;;;;;;4884097;29;20205;-92
2022/08/31 11:28:53;;;;;;;74.05;28.20;;;25.90;1.00;;;;;;4903951;29;20212;-89
2022/08/31 11:31:30;;;;;;;71.72;27.90;;;25.50;1.00;;;;;;4893453;29;20205;-89
2022/08/31 11:34:06;;;;;;;70.70;27.77;;;25.20;1.00;;;;;;4909810;29;20231;-91
2022/08/31 11:36:56;;;;;;;69.95;27.65;;;25.00;1.00;;;;;;4913367;29;20194;-87
2022/08/31 11:39:43;;;;;;;72.40;28.17;;;24.70;1.00;;;;;;4905354;29;20245;-88
2022/08/31 11:42:52;;;;;;;69.40;27.77;;;24.50;1.00;;;;;;4894446;29;20206;-87
2022/08/31 11:45:31;;;;;;;75.60;28.15;;;24.40;1.00;;;;;;4913014;29;20272;-88
2022/08/31 11:48:00;;;;;;;76.05;28.50;;;24.40;1.00;;;;;;4890469;29;20250;-87
2022/08/31 11:51:05;;;;;;;74.70;28.13;;;24.70;1.00;;;;;;4896800;29;20291;-85
2022/08/31 11:53:36;;;;;;;77.75;28.88;;;25.00;1.00;;;;;;4865072;29;20297;-85
2022/08/31 11:56:12;;;;;;;79.85;28.83;;;25.20;1.00;;;;;;4872992;29;20611;-85
2022/08/31 11:58:41;;;;;;;78.32;28.65;;;25.20;1.00;;;;;;4896020;29;20207;-85
2022/08/31 12:01:41;;;;;;;74.18;28.10;;;25.10;1.00;;;;;;4892643;29;20715;-85
2022/08/31 12:04:50;;;;;;;72.75;27.98;;;24.80;1.00;;;;;;4893339;29;20204;-85
2022/08/31 12:07:27;;;;;;;75.00;28.10;;;24.60;1.00;;;;;;4879547;29;20253;-85
2022/08/31 12:10:38;;;;;;;74.85;28.45;;;24.30;1.00;;;;;;4887495;29;20232;-85
2022/08/31 12:13:26;;;;;;;81.05;29.05;;;24.10;1.00;;;;;;4866565;29;20663;-85
2022/08/31 12:16:19;;;;;;;73.85;28.10;;;24.00;1.00;;;;;;4907539;29;20201;-89
2022/08/31 12:19:12;;;;;;;81.35;29.13;;;24.10;1.00;;;;;;4899520;29;20622;-88
2022/08/31 12:25:25;;;;;;;76.35;28.42;;;24.60;1.00;;;;;;4879572;29;20336;-91
2022/08/31 12:28:09;;;;;;;81.28;29.13;;;24.70;1.00;;;;;;4896277;29;20224;-92
2022/08/31 12:30:53;;;;;;;77.03;28.70;;;24.60;1.00;;;;;;4889459;29;20261;-89
2022/08/31 12:33:43;;;;;;;70.40;27.77;;;24.40;1.00;;;;;;4879587;29;20210;-88
2022/08/31 12:36:16;;;;;;;68.07;27.45;;;24.10;1.00;;;;;;4913206;29;20210;-90
2022/08/31 12:38:49;;;;;;;72.07;28.00;;;23.90;1.00;;;;;;4897823;29;20207;-93
2022/08/31 12:41:27;;;;;;;69.82;27.70;;;23.80;1.00;;;;;;4906406;29;20248;-90
2022/08/31 12:44:12;;;;;;;68.35;27.38;;;23.70;1.00;;;;;;4890560;29;20203;-90
2022/08/31 12:47:04;;;;;;;70.70;27.73;;;23.70;1.00;;;;;;4914548;29;20182;-92
2022/08/31 12:49:59;;;;;;;70.30;27.73;;;23.70;1.00;;;;;;4902319;29;20184;-90
2022/08/31 12:52:45;;;;;;;70.10;27.38;;;23.70;1.00;;;;;;4901442;29;20228;-91
2022/08/31 12:55:29;;;;;;;70.22;27.65;;;23.70;1.00;;;;;;4884571;29;20209;-85
2022/08/31 12:58:12;;;;;;;70.10;27.50;;;23.70;1.00;;;;;;4877263;29;20204;-85
2022/08/31 13:00:42;;;;;;;70.38;27.77;;;23.80;1.00;;;;;;4878801;29;20215;-85
2022/08/31 13:03:19;;;;;;;71.18;27.77;;;23.80;1.00;;;;;;4870819;29;20202;-85
2022/08/31 13:06:07;;;;;;;69.57;27.55;;;23.70;1.00;;;;;;4873536;29;20206;-84
2022/08/31 13:08:38;;;;;;;71.68;27.75;;;23.70;1.00;;;;;;4860775;29;20200;-85
2022/08/31 13:11:16;;;;;;;73.15;27.58;;;23.70;1.00;;;;;;4859849;29;20252;-85
2022/08/31 13:13:45;;;;;;;70.10;27.70;;;23.60;1.00;;;;;;4871056;29;20238;-85
2022/08/31 13:16:13;;;;;;;76.38;28.40;;;23.50;1.00;;;;;;4878060;29;20198;-86
2022/08/31 13:18:40;;;;;;;69.72;27.85;;;23.50;1.00;;;;;;4869136;29;20551;-85
2022/08/31 13:21:08;;;;;;;75.28;28.50;;;23.40;1.00;;;;;;4874475;29;20220;-85
2022/08/31 13:23:37;;;;;;;80.25;28.92;;;23.40;1.00;;;;;;4870260;29;20208;-86
2022/08/31 13:26:19;;;;;;;76.70;28.48;;;23.30;1.00;;;;;;4862294;29;20200;-90
2022/08/31 13:28:51;;;;;;;72.70;28.02;;;23.40;1.00;;;;;;4870100;29;20249;-85
2022/08/31 13:31:20;;;;;;;79.93;28.98;;;23.50;1.00;;;;;;4859250;29;20198;-87
2022/08/31 13:33:48;;;;;;;71.38;27.88;;;23.60;1.00;;;;;;4864703;29;20216;-85
2022/08/31 13:36:30;;;;;;;79.75;28.90;;;23.60;1.00;;;;;;4853945;29;20196;-85
2022/08/31 13:39:00;;;;;;;83.45;29.58;;;23.60;1.00;;;;;;4862939;29;20281;-88
2022/08/31 13:41:29;;;;;;;78.38;28.85;;;23.50;1.00;;;;;;4865024;29;20589;-88
2022/08/31 13:44:04;;;;;;;78.07;28.92;;;23.60;1.00;;;;;;4870617;29;20199;-87
2022/08/31 13:46:34;;;;;;;66.72;27.23;;;23.60;1.00;;;;;;4868352;29;20209;-88
2022/08/31 13:49:04;;;;;;;66.82;27.23;;;23.70;1.00;;;;;;4881084;29;20183;-91
2022/08/31 13:51:34;;;;;;;67.78;27.33;;;23.70;1.00;;;;;;4894713;29;20224;-89
2022/08/31 13:54:12;;;;;;;69.15;27.50;;;23.70;1.00;;;;;;4900549;29;20221;-92
2022/08/31 13:56:54;;;;;;;69.53;27.60;;;23.80;1.00;;;;;;4894356;29;20182;-90
2022/08/31 13:59:39;;;;;;;67.80;27.05;;;23.90;1.00;;;;;;4890504;29;20676;-85
2022/08/31 14:02:40;;;;;;;72.00;27.65;;;24.00;1.00;;;;;;4905364;29;20206;-93
2022/08/31 14:05:11;;;;;;;80.03;28.90;;;24.20;1.00;;;;;;4896207;29;20201;-90